sensor_id;sensor_type;location;lat;lon;timestamp;P1;durP1;ratioP1;P2;durP2;ratioP2
74269;SDS011;62754;48.252;11.654;2023-03-14T00:01:09;0.40;;;0.17;;
74269;SDS011;62754;48.252;11.654;2023-03-14T00:25:34;0.60;;;0.15;;
74269;SDS011;62754;48.252;11.654;2023-03-14T00:28:00;0.43;;;0.10;;
74269;SDS011;62754;48.252;11.654;2023-03-14T00:30:26;0.95;;;0.15;;
74269;SDS011;62754;48.252;11.654;2023-03-14T00:32:52;1.08;;;0.20;;
74269;SDS011;62754;48.252;11.654;2023-03-14T00:35:18;0.38;;;0.20;;
74269;SDS011;62754;48.252;11.654;2023-03-14T00:37:43;0.40;;;0.20;;
74269;SDS011;62754;48.252;11.654;2023-03-14T00:40:10;0.60;;;0.10;;
74269;SDS011;62754;48.252;11.654;2023-03-14T00:42:36;0.52;;;0.10;;
74269;SDS011;62754;48.252;11.654;2023-03-14T00:45:02;0.77;;;0.10;;
74269;SDS011;62754;48.252;11.654;2023-03-14T00:47:28;1.25;;;0.17;;
74269;SDS011;62754;48.252;11.654;2023-03-14T00:49:54;1.55;;;0.20;;
74269;SDS011;62754;48.252;11.654;2023-03-14T00:52:19;0.82;;;0.10;;
74269;SDS011;62754;48.252;11.654;2023-03-14T00:54:45;0.63;;;0.28;;
74269;SDS011;62754;48.252;11.654;2023-03-14T00:57:11;1.98;;;0.32;;
74269;SDS011;62754;48.252;11.654;2023-03-14T00:59:37;0.57;;;0.20;;
74269;SDS011;62754;48.252;11.654;2023-03-14T01:02:03;0.73;;;0.20;;
74269;SDS011;62754;48.252;11.654;2023-03-14T01:04:29;0.63;;;0.30;;
74269;SDS011;62754;48.252;11.654;2023-03-14T01:06:54;0.40;;;0.20;;
74269;SDS011;62754;48.252;11.654;2023-03-14T01:09:20;0.30;;;0.10;;
74269;SDS011;62754;48.252;11.654;2023-03-14T01:11:46;0.30;;;0.10;;
74269;SDS011;62754;48.252;11.654;2023-03-14T01:14:12;0.70;;;0.10;;
74269;SDS011;62754;48.252;11.654;2023-03-14T01:16:38;1.10;;;0.25;;
74269;SDS011;62754;48.252;11.654;2023-03-14T01:19:04;1.42;;;0.20;;
74269;SDS011;62754;48.252;11.654;2023-03-14T01:21:31;0.75;;;0.13;;
74269;SDS011;62754;48.252;11.654;2023-03-14T01:23:59;0.80;;;0.22;;
74269;SDS011;62754;48.252;11.654;2023-03-14T01:26:27;1.27;;;0.20;;
74269;SDS011;62754;48.252;11.654;2023-03-14T01:28:55;0.77;;;0.20;;
74269;SDS011;62754;48.252;11.654;2023-03-14T01:31:21;1.30;;;0.35;;
74269;SDS011;62754;48.252;11.654;2023-03-14T01:36:13;0.57;;;0.20;;
74269;SDS011;62754;48.252;11.654;2023-03-14T01:38:40;2.47;;;0.30;;
74269;SDS011;62754;48.252;11.654;2023-03-14T01:41:07;1.00;;;0.20;;
74269;SDS011;62754;48.252;11.654;2023-03-14T01:43:37;0.85;;;0.30;;
74269;SDS011;62754;48.252;11.654;2023-03-14T01:48:54;1.50;;;0.30;;
74269;SDS011;62754;48.252;11.654;2023-03-14T01:54:14;0.95;;;0.20;;
74269;SDS011;62754;48.252;11.654;2023-03-14T01:56:46;0.50;;;0.20;;
74269;SDS011;62754;48.252;11.654;2023-03-14T01:59:17;0.65;;;0.20;;
74269;SDS011;62754;48.252;11.654;2023-03-14T02:01:44;0.80;;;0.20;;
74269;SDS011;62754;48.252;11.654;2023-03-14T02:04:13;1.88;;;0.30;;
74269;SDS011;62754;48.252;11.654;2023-03-14T02:06:49;1.58;;;0.22;;
74269;SDS011;62754;48.252;11.654;2023-03-14T02:09:18;0.47;;;0.20;;
74269;SDS011;62754;48.252;11.654;2023-03-14T02:11:45;1.25;;;0.30;;
74269;SDS011;62754;48.252;11.654;2023-03-14T02:14:13;0.40;;;0.15;;
74269;SDS011;62754;48.252;11.654;2023-03-14T02:16:48;0.98;;;0.30;;
74269;SDS011;62754;48.252;11.654;2023-03-14T02:19:14;1.27;;;0.65;;
74269;SDS011;62754;48.252;11.654;2023-03-14T02:21:51;2.42;;;0.20;;
74269;SDS011;62754;48.252;11.654;2023-03-14T02:24:40;0.60;;;0.20;;
74269;SDS011;62754;48.252;11.654;2023-03-14T02:27:17;2.60;;;0.22;;
74269;SDS011;62754;48.252;11.654;2023-03-14T02:29:49;0.77;;;0.20;;
74269;SDS011;62754;48.252;11.654;2023-03-14T02:32:18;1.90;;;0.20;;
74269;SDS011;62754;48.252;11.654;2023-03-14T02:34:47;0.35;;;0.10;;
74269;SDS011;62754;48.252;11.654;2023-03-14T02:37:16;1.35;;;0.28;;
74269;SDS011;62754;48.252;11.654;2023-03-14T02:39:46;1.00;;;0.10;;
74269;SDS011;62754;48.252;11.654;2023-03-14T02:42:12;0.52;;;0.10;;
74269;SDS011;62754;48.252;11.654;2023-03-14T02:47:28;0.80;;;0.20;;
74269;SDS011;62754;48.252;11.654;2023-03-14T02:50:06;1.65;;;0.30;;
74269;SDS011;62754;48.252;11.654;2023-03-14T02:55:00;1.95;;;0.10;;
74269;SDS011;62754;48.252;11.654;2023-03-14T02:57:26;1.98;;;0.15;;
74269;SDS011;62754;48.252;11.654;2023-03-14T02:59:52;1.02;;;0.20;;
74269;SDS011;62754;48.252;11.654;2023-03-14T03:02:18;1.77;;;0.20;;
74269;SDS011;62754;48.252;11.654;2023-03-14T03:04:44;2.80;;;0.10;;
74269;SDS011;62754;48.252;11.654;2023-03-14T03:07:09;1.42;;;0.22;;
74269;SDS011;62754;48.252;11.654;2023-03-14T03:09:35;1.80;;;0.20;;
74269;SDS011;62754;48.252;11.654;2023-03-14T03:12:01;1.35;;;0.20;;
74269;SDS011;62754;48.252;11.654;2023-03-14T03:14:27;0.65;;;0.10;;
74269;SDS011;62754;48.252;11.654;2023-03-14T03:16:53;0.17;;;0.10;;
74269;SDS011;62754;48.252;11.654;2023-03-14T03:19:18;0.98;;;0.17;;
74269;SDS011;62754;48.252;11.654;2023-03-14T03:21:44;0.65;;;0.20;;
74269;SDS011;62754;48.252;11.654;2023-03-14T03:24:10;0.70;;;0.17;;
74269;SDS011;62754;48.252;11.654;2023-03-14T03:26:36;0.40;;;0.10;;
74269;SDS011;62754;48.252;11.654;2023-03-14T03:29:02;0.32;;;0.20;;
74269;SDS011;62754;48.252;11.654;2023-03-14T03:31:28;0.20;;;0.08;;
74269;SDS011;62754;48.252;11.654;2023-03-14T03:33:54;0.47;;;0.10;;
74269;SDS011;62754;48.252;11.654;2023-03-14T03:36:21;1.27;;;0.22;;
74269;SDS011;62754;48.252;11.654;2023-03-14T03:38:47;0.95;;;0.88;;
74269;SDS011;62754;48.252;11.654;2023-03-14T03:41:13;1.65;;;0.20;;
74269;SDS011;62754;48.252;11.654;2023-03-14T03:43:39;0.85;;;0.20;;
74269;SDS011;62754;48.252;11.654;2023-03-14T03:46:05;0.45;;;0.10;;
74269;SDS011;62754;48.252;11.654;2023-03-14T03:48:32;1.02;;;0.10;;
74269;SDS011;62754;48.252;11.654;2023-03-14T03:50:58;0.38;;;0.10;;
74269;SDS011;62754;48.252;11.654;2023-03-14T03:53:24;1.05;;;0.10;;
74269;SDS011;62754;48.252;11.654;2023-03-14T03:55:50;0.32;;;0.10;;
74269;SDS011;62754;48.252;11.654;2023-03-14T03:58:15;0.20;;;0.10;;
74269;SDS011;62754;48.252;11.654;2023-03-14T04:00:41;0.20;;;0.10;;
74269;SDS011;62754;48.252;11.654;2023-03-14T04:03:07;0.20;;;0.10;;
74269;SDS011;62754;48.252;11.654;2023-03-14T04:05:33;0.08;;;0.00;;
74269;SDS011;62754;48.252;11.654;2023-03-14T04:07:59;1.20;;;0.10;;
74269;SDS011;62754;48.252;11.654;2023-03-14T04:10:24;0.30;;;0.10;;
74269;SDS011;62754;48.252;11.654;2023-03-14T04:12:50;0.35;;;0.10;;
74269;SDS011;62754;48.252;11.654;2023-03-14T04:15:16;0.10;;;0.00;;
74269;SDS011;62754;48.252;11.654;2023-03-14T04:17:41;0.52;;;0.10;;
74269;SDS011;62754;48.252;11.654;2023-03-14T04:20:07;1.45;;;0.20;;
74269;SDS011;62754;48.252;11.654;2023-03-14T04:22:33;0.35;;;0.10;;
74269;SDS011;62754;48.252;11.654;2023-03-14T04:24:59;1.85;;;0.17;;
74269;SDS011;62754;48.252;11.654;2023-03-14T04:27:25;0.65;;;0.00;;
74269;SDS011;62754;48.252;11.654;2023-03-14T04:29:51;0.20;;;0.00;;
74269;SDS011;62754;48.252;11.654;2023-03-14T04:32:17;0.22;;;0.10;;
74269;SDS011;62754;48.252;11.654;2023-03-14T04:34:42;0.57;;;0.10;;
74269;SDS011;62754;48.252;11.654;2023-03-14T04:37:08;1.35;;;0.15;;
74269;SDS011;62754;48.252;11.654;2023-03-14T04:39:34;1.00;;;0.32;;
74269;SDS011;62754;48.252;11.654;2023-03-14T04:42:00;0.15;;;0.00;;
74269;SDS011;62754;48.252;11.654;2023-03-14T04:44:25;0.30;;;0.10;;
74269;SDS011;62754;48.252;11.654;2023-03-14T04:46:51;0.65;;;0.10;;
74269;SDS011;62754;48.252;11.654;2023-03-14T04:49:17;3.42;;;0.20;;
74269;SDS011;62754;48.252;11.654;2023-03-14T04:51:43;0.10;;;0.10;;
74269;SDS011;62754;48.252;11.654;2023-03-14T04:54:09;1.50;;;0.10;;
74269;SDS011;62754;48.252;11.654;2023-03-14T04:56:34;0.20;;;0.00;;
74269;SDS011;62754;48.252;11.654;2023-03-14T04:59:00;0.30;;;0.10;;
74269;SDS011;62754;48.252;11.654;2023-03-14T05:01:26;0.60;;;0.13;;
74269;SDS011;62754;48.252;11.654;2023-03-14T05:03:52;0.52;;;0.10;;
74269;SDS011;62754;48.252;11.654;2023-03-14T05:06:18;1.38;;;0.30;;
74269;SDS011;62754;48.252;11.654;2023-03-14T05:08:43;4.57;;;2.38;;
74269;SDS011;62754;48.252;11.654;2023-03-14T05:11:09;55.67;;;28.45;;
74269;SDS011;62754;48.252;11.654;2023-03-14T05:13:36;179.15;;;96.72;;
74269;SDS011;62754;48.252;11.654;2023-03-14T05:16:05;223.77;;;141.32;;
74269;SDS011;62754;48.252;11.654;2023-03-14T05:18:33;336.23;;;258.75;;
74269;SDS011;62754;48.252;11.654;2023-03-14T05:20:59;403.58;;;291.20;;
74269;SDS011;62754;48.252;11.654;2023-03-14T05:23:25;298.80;;;212.25;;
74269;SDS011;62754;48.252;11.654;2023-03-14T05:25:50;113.32;;;74.55;;
74269;SDS011;62754;48.252;11.654;2023-03-14T05:28:16;433.77;;;272.13;;
74269;SDS011;62754;48.252;11.654;2023-03-14T05:30:42;178.40;;;92.97;;
74269;SDS011;62754;48.252;11.654;2023-03-14T05:33:08;55.42;;;25.30;;
74269;SDS011;62754;48.252;11.654;2023-03-14T05:35:33;41.63;;;18.85;;
74269;SDS011;62754;48.252;11.654;2023-03-14T05:37:59;14.82;;;5.07;;
74269;SDS011;62754;48.252;11.654;2023-03-14T05:40:25;14.45;;;4.60;;
74269;SDS011;62754;48.252;11.654;2023-03-14T05:42:51;14.55;;;5.15;;
74269;SDS011;62754;48.252;11.654;2023-03-14T05:45:17;6.95;;;2.67;;
74269;SDS011;62754;48.252;11.654;2023-03-14T05:47:42;2.55;;;0.88;;
74269;SDS011;62754;48.252;11.654;2023-03-14T05:50:08;4.32;;;1.40;;
74269;SDS011;62754;48.252;11.654;2023-03-14T05:52:35;2.13;;;0.95;;
74269;SDS011;62754;48.252;11.654;2023-03-14T05:55:01;1.83;;;0.50;;
74269;SDS011;62754;48.252;11.654;2023-03-14T05:57:26;2.83;;;0.50;;
74269;SDS011;62754;48.252;11.654;2023-03-14T05:59:52;1.70;;;0.70;;
74269;SDS011;62754;48.252;11.654;2023-03-14T06:02:18;1.05;;;0.30;;
74269;SDS011;62754;48.252;11.654;2023-03-14T06:04:44;1.50;;;0.32;;
74269;SDS011;62754;48.252;11.654;2023-03-14T06:07:09;1.60;;;0.32;;
74269;SDS011;62754;48.252;11.654;2023-03-14T06:09:35;1.15;;;0.25;;
74269;SDS011;62754;48.252;11.654;2023-03-14T06:12:01;1.40;;;0.35;;
74269;SDS011;62754;48.252;11.654;2023-03-14T06:14:27;2.03;;;0.38;;
74269;SDS011;62754;48.252;11.654;2023-03-14T06:16:52;0.57;;;0.17;;
74269;SDS011;62754;48.252;11.654;2023-03-14T06:19:18;0.75;;;0.20;;
74269;SDS011;62754;48.252;11.654;2023-03-14T06:21:44;1.70;;;0.30;;
74269;SDS011;62754;48.252;11.654;2023-03-14T06:24:10;1.15;;;0.45;;
74269;SDS011;62754;48.252;11.654;2023-03-14T06:26:35;1.15;;;0.30;;
74269;SDS011;62754;48.252;11.654;2023-03-14T06:29:01;2.05;;;0.28;;
74269;SDS011;62754;48.252;11.654;2023-03-14T06:31:27;1.02;;;0.20;;
74269;SDS011;62754;48.252;11.654;2023-03-14T06:33:53;0.90;;;0.20;;
74269;SDS011;62754;48.252;11.654;2023-03-14T06:36:19;0.73;;;0.17;;
74269;SDS011;62754;48.252;11.654;2023-03-14T06:38:44;1.23;;;0.20;;
74269;SDS011;62754;48.252;11.654;2023-03-14T06:41:10;0.47;;;0.13;;
74269;SDS011;62754;48.252;11.654;2023-03-14T06:43:36;1.92;;;0.32;;
74269;SDS011;62754;48.252;11.654;2023-03-14T06:46:02;0.85;;;0.25;;
74269;SDS011;62754;48.252;11.654;2023-03-14T06:48:27;0.70;;;0.22;;
74269;SDS011;62754;48.252;11.654;2023-03-14T06:50:54;0.28;;;0.10;;
74269;SDS011;62754;48.252;11.654;2023-03-14T06:53:20;0.22;;;0.10;;
74269;SDS011;62754;48.252;11.654;2023-03-14T06:55:46;0.52;;;0.10;;
74269;SDS011;62754;48.252;11.654;2023-03-14T06:58:12;1.00;;;0.22;;
74269;SDS011;62754;48.252;11.654;2023-03-14T07:00:38;1.05;;;0.20;;
74269;SDS011;62754;48.252;11.654;2023-03-14T07:03:03;0.43;;;0.20;;
74269;SDS011;62754;48.252;11.654;2023-03-14T07:05:29;1.45;;;0.22;;
74269;SDS011;62754;48.252;11.654;2023-03-14T07:07:55;1.02;;;0.30;;
74269;SDS011;62754;48.252;11.654;2023-03-14T07:10:21;0.45;;;0.20;;
74269;SDS011;62754;48.252;11.654;2023-03-14T07:12:47;1.30;;;0.40;;
74269;SDS011;62754;48.252;11.654;2023-03-14T07:15:12;1.42;;;0.35;;
74269;SDS011;62754;48.252;11.654;2023-03-14T07:17:38;1.38;;;0.40;;
74269;SDS011;62754;48.252;11.654;2023-03-14T07:20:04;2.13;;;0.68;;
74269;SDS011;62754;48.252;11.654;2023-03-14T07:22:30;0.93;;;0.20;;
74269;SDS011;62754;48.252;11.654;2023-03-14T07:24:56;0.80;;;0.20;;
74269;SDS011;62754;48.252;11.654;2023-03-14T07:27:22;0.68;;;0.28;;
74269;SDS011;62754;48.252;11.654;2023-03-14T07:29:48;0.75;;;0.20;;
74269;SDS011;62754;48.252;11.654;2023-03-14T07:32:13;1.63;;;0.22;;
74269;SDS011;62754;48.252;11.654;2023-03-14T07:34:39;0.43;;;0.20;;
74269;SDS011;62754;48.252;11.654;2023-03-14T07:37:08;0.93;;;0.20;;
74269;SDS011;62754;48.252;11.654;2023-03-14T07:39:34;0.88;;;0.30;;
74269;SDS011;62754;48.252;11.654;2023-03-14T07:42:00;1.05;;;0.20;;
74269;SDS011;62754;48.252;11.654;2023-03-14T07:44:26;0.60;;;0.20;;
74269;SDS011;62754;48.252;11.654;2023-03-14T07:46:52;0.57;;;0.13;;
74269;SDS011;62754;48.252;11.654;2023-03-14T07:49:18;1.95;;;0.28;;
74269;SDS011;62754;48.252;11.654;2023-03-14T07:51:46;1.13;;;0.20;;
74269;SDS011;62754;48.252;11.654;2023-03-14T07:54:13;0.88;;;0.22;;
74269;SDS011;62754;48.252;11.654;2023-03-14T07:56:39;0.68;;;0.20;;
74269;SDS011;62754;48.252;11.654;2023-03-14T07:59:05;1.80;;;0.40;;
74269;SDS011;62754;48.252;11.654;2023-03-14T08:01:31;2.60;;;0.70;;
74269;SDS011;62754;48.252;11.654;2023-03-14T08:03:56;2.33;;;0.28;;
74269;SDS011;62754;48.252;11.654;2023-03-14T08:06:22;0.73;;;0.20;;
74269;SDS011;62754;48.252;11.654;2023-03-14T08:08:48;3.10;;;0.30;;
74269;SDS011;62754;48.252;11.654;2023-03-14T08:11:14;1.52;;;0.30;;
74269;SDS011;62754;48.252;11.654;2023-03-14T08:13:40;0.80;;;0.20;;
74269;SDS011;62754;48.252;11.654;2023-03-14T08:16:05;2.10;;;0.47;;
74269;SDS011;62754;48.252;11.654;2023-03-14T08:18:32;0.93;;;0.30;;
74269;SDS011;62754;48.252;11.654;2023-03-14T08:20:58;0.90;;;0.10;;
74269;SDS011;62754;48.252;11.654;2023-03-14T08:23:23;1.08;;;0.30;;
74269;SDS011;62754;48.252;11.654;2023-03-14T08:25:49;0.70;;;0.30;;
74269;SDS011;62754;48.252;11.654;2023-03-14T08:28:16;0.68;;;0.28;;
74269;SDS011;62754;48.252;11.654;2023-03-14T08:30:43;2.05;;;0.40;;
74269;SDS011;62754;48.252;11.654;2023-03-14T08:33:08;0.95;;;0.20;;
74269;SDS011;62754;48.252;11.654;2023-03-14T08:35:34;0.80;;;0.65;;
74269;SDS011;62754;48.252;11.654;2023-03-14T08:38:02;1.98;;;0.50;;
74269;SDS011;62754;48.252;11.654;2023-03-14T08:40:28;1.75;;;0.30;;
74269;SDS011;62754;48.252;11.654;2023-03-14T08:42:53;1.48;;;0.32;;
74269;SDS011;62754;48.252;11.654;2023-03-14T08:45:19;0.40;;;0.20;;
74269;SDS011;62754;48.252;11.654;2023-03-14T08:47:45;1.33;;;0.25;;
74269;SDS011;62754;48.252;11.654;2023-03-14T08:50:11;0.55;;;0.20;;
74269;SDS011;62754;48.252;11.654;2023-03-14T08:52:38;0.57;;;0.20;;
74269;SDS011;62754;48.252;11.654;2023-03-14T08:55:04;1.05;;;0.20;;
74269;SDS011;62754;48.252;11.654;2023-03-14T08:57:30;1.60;;;0.20;;
74269;SDS011;62754;48.252;11.654;2023-03-14T08:59:56;1.60;;;0.35;;
74269;SDS011;62754;48.252;11.654;2023-03-14T09:02:23;0.80;;;0.30;;
74269;SDS011;62754;48.252;11.654;2023-03-14T09:04:50;3.50;;;0.38;;
74269;SDS011;62754;48.252;11.654;2023-03-14T09:07:16;1.15;;;0.13;;
74269;SDS011;62754;48.252;11.654;2023-03-14T09:09:43;1.45;;;0.20;;
74269;SDS011;62754;48.252;11.654;2023-03-14T09:12:08;1.15;;;0.20;;
74269;SDS011;62754;48.252;11.654;2023-03-14T09:14:34;0.63;;;0.10;;
74269;SDS011;62754;48.252;11.654;2023-03-14T09:17:01;1.27;;;0.20;;
74269;SDS011;62754;48.252;11.654;2023-03-14T09:19:28;2.10;;;0.20;;
74269;SDS011;62754;48.252;11.654;2023-03-14T09:21:54;1.05;;;0.10;;
74269;SDS011;62754;48.252;11.654;2023-03-14T09:24:20;0.63;;;0.20;;
74269;SDS011;62754;48.252;11.654;2023-03-14T09:26:46;0.25;;;0.10;;
74269;SDS011;62754;48.252;11.654;2023-03-14T09:29:12;1.10;;;0.20;;
74269;SDS011;62754;48.252;11.654;2023-03-14T09:31:38;2.05;;;0.30;;
74269;SDS011;62754;48.252;11.654;2023-03-14T09:34:04;0.25;;;0.10;;
74269;SDS011;62754;48.252;11.654;2023-03-14T09:36:30;1.27;;;0.20;;
74269;SDS011;62754;48.252;11.654;2023-03-14T09:38:56;1.75;;;0.20;;
74269;SDS011;62754;48.252;11.654;2023-03-14T09:41:26;0.95;;;0.20;;
74269;SDS011;62754;48.252;11.654;2023-03-14T09:43:58;1.20;;;0.10;;
74269;SDS011;62754;48.252;11.654;2023-03-14T09:46:29;1.45;;;0.30;;
74269;SDS011;62754;48.252;11.654;2023-03-14T09:49:00;2.65;;;0.40;;
74269;SDS011;62754;48.252;11.654;2023-03-14T09:51:26;2.92;;;0.40;;
74269;SDS011;62754;48.252;11.654;2023-03-14T09:53:53;1.50;;;0.20;;
74269;SDS011;62754;48.252;11.654;2023-03-14T09:56:28;0.85;;;0.17;;
74269;SDS011;62754;48.252;11.654;2023-03-14T09:58:58;1.35;;;0.22;;
74269;SDS011;62754;48.252;11.654;2023-03-14T10:01:27;1.60;;;0.40;;
74269;SDS011;62754;48.252;11.654;2023-03-14T10:03:55;2.92;;;0.40;;
74269;SDS011;62754;48.252;11.654;2023-03-14T10:06:24;2.00;;;0.30;;
74269;SDS011;62754;48.252;11.654;2023-03-14T10:08:52;0.63;;;0.20;;
74269;SDS011;62754;48.252;11.654;2023-03-14T10:13:49;2.10;;;0.98;;
74269;SDS011;62754;48.252;11.654;2023-03-14T10:16:36;2.33;;;0.93;;
74269;SDS011;62754;48.252;11.654;2023-03-14T10:19:07;1.25;;;0.28;;
74269;SDS011;62754;48.252;11.654;2023-03-14T10:21:40;2.95;;;0.47;;
74269;SDS011;62754;48.252;11.654;2023-03-14T10:26:51;0.93;;;0.20;;
74269;SDS011;62754;48.252;11.654;2023-03-14T10:29:19;2.33;;;0.40;;
74269;SDS011;62754;48.252;11.654;2023-03-14T10:31:46;0.90;;;0.28;;
74269;SDS011;62754;48.252;11.654;2023-03-14T10:34:17;0.75;;;0.30;;
74269;SDS011;62754;48.252;11.654;2023-03-14T10:36:51;1.88;;;0.25;;
74269;SDS011;62754;48.252;11.654;2023-03-14T10:41:53;2.53;;;0.47;;
74269;SDS011;62754;48.252;11.654;2023-03-14T10:44:27;1.48;;;0.20;;
74269;SDS011;62754;48.252;11.654;2023-03-14T10:46:58;2.42;;;0.40;;
74269;SDS011;62754;48.252;11.654;2023-03-14T10:49:33;2.67;;;0.30;;
74269;SDS011;62754;48.252;11.654;2023-03-14T10:52:01;2.58;;;0.50;;
74269;SDS011;62754;48.252;11.654;2023-03-14T10:54:48;2.65;;;1.05;;
74269;SDS011;62754;48.252;11.654;2023-03-14T10:57:19;2.22;;;0.40;;
74269;SDS011;62754;48.252;11.654;2023-03-14T10:59:44;3.10;;;0.50;;
74269;SDS011;62754;48.252;11.654;2023-03-14T11:04:56;2.78;;;0.50;;
74269;SDS011;62754;48.252;11.654;2023-03-14T11:07:41;1.15;;;0.35;;
74269;SDS011;62754;48.252;11.654;2023-03-14T11:10:17;2.45;;;0.32;;
74269;SDS011;62754;48.252;11.654;2023-03-14T11:23:27;1.50;;;0.30;;
74269;SDS011;62754;48.252;11.654;2023-03-14T11:31:57;3.33;;;0.43;;
74269;SDS011;62754;48.252;11.654;2023-03-14T11:37:36;5.72;;;0.50;;
74269;SDS011;62754;48.252;11.654;2023-03-14T11:40:21;0.52;;;0.20;;
74269;SDS011;62754;48.252;11.654;2023-03-14T11:45:41;2.47;;;0.30;;
74269;SDS011;62754;48.252;11.654;2023-03-14T11:48:16;1.88;;;0.20;;
74269;SDS011;62754;48.252;11.654;2023-03-14T11:51:13;4.95;;;0.30;;
74269;SDS011;62754;48.252;11.654;2023-03-14T11:53:57;1.20;;;0.17;;
74269;SDS011;62754;48.252;11.654;2023-03-14T11:56:46;1.10;;;0.30;;
74269;SDS011;62754;48.252;11.654;2023-03-14T11:59:22;0.50;;;0.30;;
74269;SDS011;62754;48.252;11.654;2023-03-14T12:07:00;0.80;;;0.05;;
74269;SDS011;62754;48.252;11.654;2023-03-14T12:09:29;2.30;;;0.20;;
74269;SDS011;62754;48.252;11.654;2023-03-14T12:11:59;1.00;;;0.10;;
74269;SDS011;62754;48.252;11.654;2023-03-14T12:17:04;1.05;;;0.10;;
74269;SDS011;62754;48.252;11.654;2023-03-14T12:19:44;1.20;;;0.20;;
74269;SDS011;62754;48.252;11.654;2023-03-14T12:22:20;5.45;;;0.40;;
74269;SDS011;62754;48.252;11.654;2023-03-14T12:25:06;0.82;;;0.13;;
74269;SDS011;62754;48.252;11.654;2023-03-14T12:27:43;0.22;;;0.10;;
74269;SDS011;62754;48.252;11.654;2023-03-14T12:35:41;0.55;;;0.20;;
74269;SDS011;62754;48.252;11.654;2023-03-14T12:41:21;0.57;;;0.17;;
74269;SDS011;62754;48.252;11.654;2023-03-14T12:43:53;0.25;;;0.00;;
74269;SDS011;62754;48.252;11.654;2023-03-14T12:46:26;0.40;;;0.10;;
74269;SDS011;62754;48.252;11.654;2023-03-14T12:51:36;1.45;;;0.10;;
74269;SDS011;62754;48.252;11.654;2023-03-14T12:54:11;0.70;;;0.10;;
74269;SDS011;62754;48.252;11.654;2023-03-14T13:02:02;0.88;;;0.20;;
74269;SDS011;62754;48.252;11.654;2023-03-14T13:10:03;0.00;;;0.00;;
74269;SDS011;62754;48.252;11.654;2023-03-14T13:12:34;2.17;;;0.80;;
74269;SDS011;62754;48.252;11.654;2023-03-14T13:15:12;1.55;;;0.32;;
74269;SDS011;62754;48.252;11.654;2023-03-14T13:18:02;0.95;;;0.10;;
74269;SDS011;62754;48.252;11.654;2023-03-14T13:20:35;0.35;;;0.10;;
74269;SDS011;62754;48.252;11.654;2023-03-14T13:23:26;4.25;;;0.30;;
74269;SDS011;62754;48.252;11.654;2023-03-14T13:25:54;1.33;;;0.20;;
74269;SDS011;62754;48.252;11.654;2023-03-14T13:28:21;3.25;;;0.50;;
74269;SDS011;62754;48.252;11.654;2023-03-14T13:30:48;0.28;;;0.00;;
74269;SDS011;62754;48.252;11.654;2023-03-14T13:33:16;0.57;;;0.10;;
74269;SDS011;62754;48.252;11.654;2023-03-14T13:35:45;0.38;;;0.17;;
74269;SDS011;62754;48.252;11.654;2023-03-14T13:38:20;1.15;;;0.10;;
74269;SDS011;62754;48.252;11.654;2023-03-14T13:40:48;1.02;;;0.20;;
74269;SDS011;62754;48.252;11.654;2023-03-14T13:46:19;0.20;;;0.00;;
74269;SDS011;62754;48.252;11.654;2023-03-14T13:48:54;0.15;;;0.10;;
74269;SDS011;62754;48.252;11.654;2023-03-14T13:51:23;1.00;;;0.25;;
74269;SDS011;62754;48.252;11.654;2023-03-14T13:53:52;0.40;;;0.20;;
74269;SDS011;62754;48.252;11.654;2023-03-14T13:56:23;0.08;;;0.00;;
74269;SDS011;62754;48.252;11.654;2023-03-14T13:58:51;0.40;;;0.10;;
74269;SDS011;62754;48.252;11.654;2023-03-14T14:03:49;0.57;;;0.00;;
74269;SDS011;62754;48.252;11.654;2023-03-14T14:06:32;0.35;;;0.08;;
74269;SDS011;62754;48.252;11.654;2023-03-14T14:09:24;0.63;;;0.20;;
74269;SDS011;62754;48.252;11.654;2023-03-14T14:12:03;0.68;;;0.10;;
74269;SDS011;62754;48.252;11.654;2023-03-14T14:17:04;1.75;;;0.10;;
74269;SDS011;62754;48.252;11.654;2023-03-14T14:19:34;0.85;;;0.20;;
74269;SDS011;62754;48.252;11.654;2023-03-14T14:22:02;0.50;;;0.10;;
74269;SDS011;62754;48.252;11.654;2023-03-14T14:24:30;1.67;;;0.20;;
74269;SDS011;62754;48.252;11.654;2023-03-14T14:30:24;1.92;;;0.20;;
74269;SDS011;62754;48.252;11.654;2023-03-14T14:32:55;1.17;;;0.10;;
74269;SDS011;62754;48.252;11.654;2023-03-14T14:35:37;0.25;;;0.10;;
74269;SDS011;62754;48.252;11.654;2023-03-14T14:38:08;9.55;;;1.05;;
74269;SDS011;62754;48.252;11.654;2023-03-14T14:40:42;2.90;;;0.30;;
74269;SDS011;62754;48.252;11.654;2023-03-14T14:43:11;0.45;;;0.10;;
74269;SDS011;62754;48.252;11.654;2023-03-14T14:45:43;0.22;;;0.10;;
74269;SDS011;62754;48.252;11.654;2023-03-14T14:48:14;1.30;;;0.15;;
74269;SDS011;62754;48.252;11.654;2023-03-14T14:53:21;0.60;;;0.20;;
74269;SDS011;62754;48.252;11.654;2023-03-14T14:55:53;0.40;;;0.10;;
74269;SDS011;62754;48.252;11.654;2023-03-14T14:58:28;1.10;;;0.17;;
74269;SDS011;62754;48.252;11.654;2023-03-14T15:01:03;0.35;;;0.10;;
74269;SDS011;62754;48.252;11.654;2023-03-14T15:03:44;0.28;;;0.03;;
74269;SDS011;62754;48.252;11.654;2023-03-14T15:06:12;0.28;;;0.10;;
74269;SDS011;62754;48.252;11.654;2023-03-14T15:08:39;0.55;;;0.10;;
74269;SDS011;62754;48.252;11.654;2023-03-14T15:11:05;0.40;;;0.10;;
74269;SDS011;62754;48.252;11.654;2023-03-14T15:13:31;0.98;;;0.10;;
74269;SDS011;62754;48.252;11.654;2023-03-14T15:15:57;2.30;;;0.28;;
74269;SDS011;62754;48.252;11.654;2023-03-14T15:18:23;0.43;;;0.10;;
74269;SDS011;62754;48.252;11.654;2023-03-14T15:20:51;0.40;;;0.10;;
74269;SDS011;62754;48.252;11.654;2023-03-14T15:23:18;0.65;;;0.15;;
74269;SDS011;62754;48.252;11.654;2023-03-14T15:25:45;0.68;;;0.25;;
74269;SDS011;62754;48.252;11.654;2023-03-14T15:28:13;0.45;;;0.15;;
74269;SDS011;62754;48.252;11.654;2023-03-14T15:30:39;0.47;;;0.20;;
74269;SDS011;62754;48.252;11.654;2023-03-14T15:33:05;1.40;;;0.32;;
74269;SDS011;62754;48.252;11.654;2023-03-14T15:35:31;1.00;;;0.30;;
74269;SDS011;62754;48.252;11.654;2023-03-14T15:37:57;1.25;;;0.30;;
74269;SDS011;62754;48.252;11.654;2023-03-14T15:40:23;0.93;;;0.32;;
74269;SDS011;62754;48.252;11.654;2023-03-14T15:42:50;0.70;;;0.30;;
74269;SDS011;62754;48.252;11.654;2023-03-14T15:47:42;0.50;;;0.20;;
74269;SDS011;62754;48.252;11.654;2023-03-14T15:50:09;1.27;;;0.50;;
74269;SDS011;62754;48.252;11.654;2023-03-14T15:52:35;1.02;;;0.40;;
74269;SDS011;62754;48.252;11.654;2023-03-14T15:55:01;0.68;;;0.30;;
74269;SDS011;62754;48.252;11.654;2023-03-14T15:57:27;1.15;;;0.35;;
74269;SDS011;62754;48.252;11.654;2023-03-14T15:59:52;1.33;;;0.50;;
74269;SDS011;62754;48.252;11.654;2023-03-14T16:02:23;2.20;;;0.50;;
74269;SDS011;62754;48.252;11.654;2023-03-14T16:04:49;1.70;;;0.65;;
74269;SDS011;62754;48.252;11.654;2023-03-14T16:07:15;0.90;;;0.45;;
74269;SDS011;62754;48.252;11.654;2023-03-14T16:09:41;0.90;;;0.30;;
74269;SDS011;62754;48.252;11.654;2023-03-14T16:12:07;1.33;;;0.65;;
74269;SDS011;62754;48.252;11.654;2023-03-14T16:14:33;1.98;;;0.60;;
74269;SDS011;62754;48.252;11.654;2023-03-14T16:16:58;0.95;;;0.30;;
74269;SDS011;62754;48.252;11.654;2023-03-14T16:19:25;3.00;;;0.60;;
74269;SDS011;62754;48.252;11.654;2023-03-14T16:21:51;2.72;;;0.65;;
74269;SDS011;62754;48.252;11.654;2023-03-14T16:24:18;1.70;;;0.40;;
74269;SDS011;62754;48.252;11.654;2023-03-14T16:26:44;1.30;;;0.50;;
74269;SDS011;62754;48.252;11.654;2023-03-14T16:29:10;1.55;;;0.57;;
74269;SDS011;62754;48.252;11.654;2023-03-14T16:31:38;1.27;;;0.40;;
74269;SDS011;62754;48.252;11.654;2023-03-14T16:34:03;3.55;;;0.70;;